Time;durP1;ratioP1;P1;durP2;ratioP2;P2;SDS_P1;SDS_P2;PMS_P1;PMS_P2;Temp;Humidity;BMP_temperature;BMP_pressure;BME280_temperature;BME280_humidity;BME280_pressure;Samples;Min_cycle;Max_cycle;Signal;HPM_P1;HPM_P2
2021/09/19 00:00:21;;;;;;;3.83;3.53;;;;;21.50;100426.00;;;;2070572;28;20209;-56
2021/09/19 00:01:21;;;;;;;4.00;3.60;;;;;21.50;100422.00;;;;2068465;28;20261;-57
2021/09/19 00:02:21;;;;;;;3.57;3.27;;;;;21.50;100425.00;;;;2068502;28;20450;-57
2021/09/19 00:03:22;;;;;;;3.53;3.23;;;;;21.50;100425.00;;;;2068413;28;20225;-57
2021/09/19 00:04:22;;;;;;;3.53;3.23;;;;;21.50;100433.00;;;;2070665;28;20226;-55
2021/09/19 00:05:22;;;;;;;4.10;3.60;;;;;21.50;100426.00;;;;2068074;28;20276;-56
2021/09/19 00:06:25;;;;;;;3.77;3.37;;;;;21.50;100428.00;;;;2068251;28;20668;-56
2021/09/19 00:07:25;;;;;;;3.72;3.40;;;;;21.50;100434.00;;;;2066282;28;20657;-56
2021/09/19 00:08:27;;;;;;;4.17;3.77;;;;;21.50;100429.00;;;;2070279;28;20218;-56
2021/09/19 00:09:27;;;;;;;3.85;3.55;;;;;21.50;100424.00;;;;2068376;28;20298;-56
2021/09/19 00:10:27;;;;;;;3.53;3.23;;;;;21.50;100431.00;;;;2066931;28;20215;-56
2021/09/19 00:11:28;;;;;;;3.63;3.33;;;;;21.50;100416.00;;;;2067884;28;20681;-56
2021/09/19 00:12:28;;;;;;;3.27;2.97;;;;;21.50;100432.00;;;;2065687;28;20290;-57
2021/09/19 00:13:29;;;;;;;3.97;3.20;;;;;21.50;100429.00;;;;2067919;28;20237;-54
2021/09/19 00:14:29;;;;;;;3.67;3.37;;;;;21.50;100432.00;;;;2068014;28;20242;-55
2021/09/19 00:15:30;;;;;;;3.50;3.20;;;;;21.50;100427.00;;;;2071450;28;20369;-55
2021/09/19 00:16:30;;;;;;;3.10;2.80;;;;;21.50;100424.00;;;;2065861;28;20862;-56
2021/09/19 00:17:30;;;;;;;3.73;3.43;;;;;21.50;100421.00;;;;2068042;28;20214;-56
2021/09/19 00:18:31;;;;;;;3.40;3.10;;;;;21.50;100418.00;;;;2071034;28;20218;-55
2021/09/19 00:19:31;;;;;;;3.33;2.90;;;;;21.40;100423.00;;;;2067942;28;20328;-56
2021/09/19 00:20:32;;;;;;;5.53;3.67;;;;;21.50;100426.00;;;;2068302;28;20214;-56
2021/09/19 00:21:32;;;;;;;3.37;3.07;;;;;21.50;100415.00;;;;2068273;28;20214;-57
2021/09/19 00:22:34;;;;;;;3.37;3.07;;;;;21.50;100425.00;;;;2072239;28;21155;-56
2021/09/19 00:23:35;;;;;;;2.97;2.67;;;;;21.50;100416.00;;;;2068033;28;20215;-55
2021/09/19 00:24:35;;;;;;;3.80;3.50;;;;;21.50;100394.00;;;;2067847;28;20221;-60
2021/09/19 00:25:36;;;;;;;5.23;2.87;;;;;21.40;100424.00;;;;2065708;28;20691;-59
2021/09/19 00:26:36;;;;;;;3.13;2.83;;;;;21.40;100423.00;;;;2071139;28;20221;-57
2021/09/19 00:27:37;;;;;;;3.63;3.07;;;;;21.50;100421.00;;;;2064650;28;20255;-57
2021/09/19 00:28:37;;;;;;;3.73;3.43;;;;;21.50;100416.00;;;;2068147;28;20254;-56
2021/09/19 00:29:37;;;;;;;2.90;2.60;;;;;21.50;100423.00;;;;2067991;28;20230;-56
2021/09/19 00:30:38;;;;;;;3.20;2.63;;;;;21.40;100417.00;;;;2071030;28;20213;-57
2021/09/19 00:31:38;;;;;;;3.47;3.17;;;;;21.40;100413.00;;;;2067818;28;20214;-56
2021/09/19 00:32:39;;;;;;;2.80;2.60;;;;;21.40;100410.00;;;;2070012;28;20289;-57
2021/09/19 00:33:39;;;;;;;3.20;2.97;;;;;21.40;100415.00;;;;2068180;28;20215;-57
2021/09/19 00:34:39;;;;;;;3.13;2.83;;;;;21.40;100417.00;;;;2064268;28;20305;-55
2021/09/19 00:35:40;;;;;;;3.00;2.70;;;;;21.40;100415.00;;;;2066684;28;20207;-56
2021/09/19 00:36:40;;;;;;;2.90;2.70;;;;;21.40;100426.00;;;;2065681;28;20210;-57
2021/09/19 00:37:40;;;;;;;3.03;2.77;;;;;21.40;100410.00;;;;2067441;28;20203;-55
2021/09/19 00:38:41;;;;;;;2.83;2.63;;;;;21.40;100421.00;;;;2064466;28;20215;-55
2021/09/19 00:39:41;;;;;;;3.30;3.00;;;;;21.40;100412.00;;;;2067859;28;20222;-57
2021/09/19 00:40:41;;;;;;;2.70;2.50;;;;;21.40;100408.00;;;;2067262;28;20218;-56
2021/09/19 00:41:42;;;;;;;2.83;2.63;;;;;21.40;100406.00;;;;2068316;28;20210;-56
2021/09/19 00:42:43;;;;;;;2.87;2.60;;;;;21.40;100417.00;;;;2069476;28;20212;-57
2021/09/19 00:43:43;;;;;;;3.23;2.60;;;;;21.40;100415.00;;;;2070814;28;20833;-56
2021/09/19 00:44:44;;;;;;;2.97;2.50;;;;;21.40;100411.00;;;;2068429;28;20654;-55
2021/09/19 00:45:44;;;;;;;2.67;2.47;;;;;21.40;100409.00;;;;2071708;28;20225;-56
2021/09/19 00:46:44;;;;;;;3.00;2.60;;;;;21.40;100413.00;;;;2068830;28;20573;-56
2021/09/19 00:47:47;;;;;;;2.70;2.50;;;;;21.40;100414.00;;;;2064090;28;20318;-57
2021/09/19 00:48:47;;;;;;;2.83;2.63;;;;;21.40;100415.00;;;;2065553;28;20219;-56
2021/09/19 00:49:47;;;;;;;2.70;2.50;;;;;21.40;100414.00;;;;2066940;28;20711;-56
2021/09/19 00:50:48;;;;;;;2.93;2.73;;;;;21.40;100414.00;;;;2063309;28;21161;-55
2021/09/19 00:51:48;;;;;;;3.10;2.47;;;;;21.40;100413.00;;;;2070320;28;20296;-56
2021/09/19 00:52:49;;;;;;;2.83;2.60;;;;;21.40;100418.00;;;;2064339;28;20207;-56
2021/09/19 00:53:49;;;;;;;3.10;2.63;;;;;21.40;100423.00;;;;2067730;28;20675;-57
2021/09/19 00:54:49;;;;;;;3.07;2.87;;;;;21.40;100413.00;;;;2070638;28;20293;-56
2021/09/19 00:55:50;;;;;;;2.90;2.70;;;;;21.40;100415.00;;;;2066819;28;20207;-55
2021/09/19 00:56:55;;;;;;;2.93;2.73;;;;;21.40;100418.00;;;;2067111;28;20218;-56
2021/09/19 00:57:57;;;;;;;2.53;2.33;;;;;21.40;100418.00;;;;2067975;28;20222;-56
2021/09/19 00:58:57;;;;;;;3.20;2.90;;;;;21.40;100418.00;;;;2065349;28;20317;-56
2021/09/19 00:59:58;;;;;;;3.10;2.70;;;;;21.40;100420.00;;;;2068284;28;20222;-56
2021/09/19 01:00:59;;;;;;;2.87;2.60;;;;;21.40;100413.00;;;;2058912;28;20219;-56
2021/09/19 01:01:59;;;;;;;2.75;2.40;;;;;21.40;100415.00;;;;2055013;28;20235;-56
2021/09/19 01:03:00;;;;;;;2.70;2.50;;;;;21.40;100422.00;;;;2064389;28;21241;-56
2021/09/19 01:04:03;;;;;;;2.27;2.10;;;;;21.40;100417.00;;;;2069430;28;20284;-55
2021/09/19 01:05:05;;;;;;;3.20;2.90;;;;;21.40;100413.00;;;;2063666;28;21168;-57
2021/09/19 01:06:06;;;;;;;2.70;2.15;;;;;21.40;100421.00;;;;2063613;28;20214;-56
2021/09/19 01:07:07;;;;;;;2.83;2.50;;;;;21.40;100416.00;;;;2067477;28;20672;-55
2021/09/19 01:08:07;;;;;;;2.50;2.30;;;;;21.40;100406.00;;;;2063708;28;20302;-56
2021/09/19 01:09:08;;;;;;;2.53;2.30;;;;;21.40;100416.00;;;;2056894;28;20208;-56
2021/09/19 01:10:10;;;;;;;2.60;2.40;;;;;21.40;100416.00;;;;2058956;28;20207;-55
2021/09/19 01:11:11;;;;;;;2.33;2.13;;;;;21.40;100415.00;;;;2068050;28;20687;-56
2021/09/19 01:12:11;;;;;;;3.22;2.95;;;;;21.40;100423.00;;;;2068008;28;20246;-55
2021/09/19 01:13:12;;;;;;;2.70;2.50;;;;;21.40;100410.00;;;;2067721;28;20275;-56
2021/09/19 01:14:16;;;;;;;2.80;2.60;;;;;21.40;100411.00;;;;2065708;28;20289;-56
2021/09/19 01:15:17;;;;;;;2.70;2.50;;;;;21.40;100415.00;;;;2062404;28;20297;-55
2021/09/19 01:16:18;;;;;;;2.60;2.40;;;;;21.40;100419.00;;;;2063552;28;20215;-56
2021/09/19 01:17:19;;;;;;;2.88;2.30;;;;;21.40;100407.00;;;;2063434;28;20222;-56
2021/09/19 01:18:19;;;;;;;2.60;2.40;;;;;21.40;100415.00;;;;2062263;28;20627;-56
2021/09/19 01:19:21;;;;;;;2.63;2.43;;;;;21.40;100421.00;;;;2063019;28;20262;-56
2021/09/19 01:20:21;;;;;;;2.58;2.28;;;;;21.30;100411.00;;;;2063476;28;20297;-56
2021/09/19 01:21:23;;;;;;;2.27;2.07;;;;;21.40;100414.00;;;;2062891;28;20564;-56
2021/09/19 01:22:33;;;;;;;3.50;2.50;;;;;21.40;100416.00;;;;2069585;28;20226;-56
2021/09/19 01:23:36;;;;;;;2.85;2.60;;;;;21.40;100409.00;;;;2068078;28;20227;-57
2021/09/19 01:24:36;;;;;;;1.98;1.88;;;;;21.40;100411.00;;;;2069897;28;20222;-55
2021/09/19 01:25:37;;;;;;;2.40;2.20;;;;;21.40;100413.00;;;;2068559;28;20703;-56
2021/09/19 01:26:38;;;;;;;2.45;2.25;;;;;21.40;100412.00;;;;2067280;28;20700;-56
2021/09/19 01:27:38;;;;;;;2.93;2.60;;;;;21.40;100407.00;;;;2066667;28;20218;-57
2021/09/19 01:28:39;;;;;;;2.57;2.37;;;;;21.40;100414.00;;;;2066449;28;20312;-56
2021/09/19 01:29:39;;;;;;;2.67;2.47;;;;;21.40;100409.00;;;;2063254;28;20675;-56
2021/09/19 01:30:40;;;;;;;2.73;2.53;;;;;21.40;100409.00;;;;2065117;28;20225;-57
2021/09/19 01:31:40;;;;;;;2.30;2.10;;;;;21.40;100412.00;;;;2063419;28;20679;-57
2021/09/19 01:32:41;;;;;;;2.13;2.03;;;;;21.40;100409.00;;;;2066106;28;20241;-57
2021/09/19 01:33:42;;;;;;;2.80;2.37;;;;;21.40;100405.00;;;;2064639;28;20218;-56
2021/09/19 01:34:42;;;;;;;3.30;2.67;;;;;21.40;100405.00;;;;2066931;28;20457;-56
2021/09/19 01:35:43;;;;;;;2.43;2.23;;;;;21.40;100403.00;;;;2067575;28;20583;-57
2021/09/19 01:36:43;;;;;;;2.30;2.10;;;;;21.40;100408.00;;;;2067829;28;20221;-56
2021/09/19 01:37:43;;;;;;;2.90;2.70;;;;;21.30;100409.00;;;;2067645;28;20225;-55
2021/09/19 01:38:44;;;;;;;2.60;2.13;;;;;21.40;100408.00;;;;2067536;28;20234;-56
2021/09/19 01:39:45;;;;;;;2.23;2.07;;;;;21.40;100399.00;;;;2065396;28;20231;-55
2021/09/19 01:40:46;;;;;;;2.13;1.93;;;;;21.40;100399.00;;;;2063511;28;20218;-55
2021/09/19 01:41:48;;;;;;;2.35;2.15;;;;;21.40;100399.00;;;;2069477;28;20222;-56
2021/09/19 01:42:49;;;;;;;2.35;2.13;;;;;21.40;100401.00;;;;2070550;28;20313;-57
2021/09/19 01:43:49;;;;;;;2.63;2.43;;;;;21.40;100399.00;;;;2067079;28;20218;-57
2021/09/19 01:44:49;;;;;;;2.43;2.23;;;;;21.40;100368.00;;;;2062978;28;20280;-56
2021/09/19 01:45:50;;;;;;;2.37;2.17;;;;;21.40;100409.00;;;;2065583;28;20756;-56
2021/09/19 01:46:50;;;;;;;2.27;2.07;;;;;21.40;100399.00;;;;2067140;28;20276;-56
2021/09/19 01:47:52;;;;;;;2.10;1.90;;;;;21.40;100394.00;;;;2067167;28;20210;-57
2021/09/19 01:48:52;;;;;;;2.13;2.00;;;;;21.40;100395.00;;;;2069338;28;20593;-56
2021/09/19 01:49:52;;;;;;;2.43;2.23;;;;;21.30;100403.00;;;;2068377;28;20210;-56
2021/09/19 01:50:53;;;;;;;2.10;1.90;;;;;21.40;100395.00;;;;2066661;28;20214;-57
2021/09/19 01:51:53;;;;;;;2.43;2.10;;;;;21.40;100398.00;;;;2067611;28;20849;-56
2021/09/19 01:52:54;;;;;;;2.10;1.90;;;;;21.40;100401.00;;;;2067211;28;20265;-56
2021/09/19 01:53:54;;;;;;;2.40;2.20;;;;;21.40;100397.00;;;;2067284;28;20230;-55
2021/09/19 01:54:54;;;;;;;2.60;2.40;;;;;21.30;100394.00;;;;2063344;28;20230;-54
2021/09/19 01:55:55;;;;;;;2.40;2.20;;;;;21.40;100403.00;;;;2068925;28;20785;-55
2021/09/19 01:56:55;;;;;;;2.33;2.13;;;;;21.30;100402.00;;;;2069250;28;21050;-55
2021/09/19 01:57:56;;;;;;;2.50;2.30;;;;;21.30;100395.00;;;;2067134;28;20258;-56
2021/09/19 01:58:57;;;;;;;1.90;1.80;;;;;21.30;100392.00;;;;2062301;28;20222;-56
2021/09/19 01:59:57;;;;;;;2.20;1.97;;;;;21.30;100397.00;;;;2070078;28;20202;-56
2021/09/19 02:01:02;;;;;;;2.00;1.90;;;;;21.30;100396.00;;;;2066396;28;20206;-57
2021/09/19 02:02:03;;;;;;;2.58;2.38;;;;;21.40;100394.00;;;;2060185;28;20219;-55
2021/09/19 02:03:03;;;;;;;2.10;1.97;;;;;21.30;100394.00;;;;2065066;28;20215;-57
2021/09/19 02:04:03;;;;;;;2.43;2.23;;;;;21.30;100390.00;;;;2067020;28;20212;-55
2021/09/19 02:05:05;;;;;;;2.50;2.20;;;;;21.40;100386.00;;;;2066959;28;20218;-56
2021/09/19 02:06:06;;;;;;;2.30;2.20;;;;;21.30;100387.00;;;;2063088;28;20218;-56
2021/09/19 02:07:06;;;;;;;2.97;2.20;;;;;21.30;100383.00;;;;2066276;28;20238;-54
2021/09/19 02:08:07;;;;;;;2.37;2.00;;;;;21.30;100389.00;;;;2057754;28;20482;-55
2021/09/19 02:09:07;;;;;;;2.10;1.90;;;;;21.30;100385.00;;;;2050071;28;20294;-56
2021/09/19 02:10:10;;;;;;;2.30;1.77;;;;;21.30;100382.00;;;;2055823;28;20385;-57
2021/09/19 02:11:11;;;;;;;2.33;1.92;;;;;21.30;100391.00;;;;2071557;28;20218;-56
2021/09/19 02:12:14;;;;;;;2.40;2.17;;;;;21.30;100381.00;;;;2067388;28;20234;-56
2021/09/19 02:13:14;;;;;;;1.92;1.70;;;;;21.30;100378.00;;;;2067713;28;20214;-57
2021/09/19 02:14:15;;;;;;;2.30;2.10;;;;;21.30;100386.00;;;;2063331;28;20221;-54
2021/09/19 02:15:16;;;;;;;2.10;1.90;;;;;21.30;100377.00;;;;2063238;28;20614;-56
2021/09/19 02:16:20;;;;;;;2.43;2.00;;;;;21.30;100384.00;;;;2070310;28;20214;-54
2021/09/19 02:17:20;;;;;;;1.90;1.80;;;;;21.30;100382.00;;;;2062871;28;20686;-56
2021/09/19 02:18:21;;;;;;;1.97;1.80;;;;;21.30;100384.00;;;;2062638;28;20561;-57
2021/09/19 02:19:21;;;;;;;2.27;2.07;;;;;21.30;100388.00;;;;2065747;28;20590;-61
2021/09/19 02:20:22;;;;;;;2.20;2.10;;;;;21.30;100382.00;;;;2066420;28;20211;-59
2021/09/19 02:21:22;;;;;;;1.70;1.60;;;;;21.30;100384.00;;;;2067393;28;20246;-57
2021/09/19 02:22:22;;;;;;;1.80;1.70;;;;;21.30;100379.00;;;;2070424;28;20216;-57
2021/09/19 02:23:23;;;;;;;2.10;1.93;;;;;21.30;100380.00;;;;2065951;28;20211;-57
2021/09/19 02:24:23;;;;;;;2.30;1.93;;;;;21.30;100376.00;;;;2062519;28;20214;-56
2021/09/19 02:25:24;;;;;;;1.90;1.80;;;;;21.30;100379.00;;;;2075473;28;20332;-56
2021/09/19 02:26:24;;;;;;;2.50;1.70;;;;;21.30;100373.00;;;;2072379;28;20280;-56
2021/09/19 02:27:25;;;;;;;2.50;1.80;;;;;21.30;100374.00;;;;2066413;28;20214;-56
2021/09/19 02:28:25;;;;;;;1.97;1.77;;;;;21.30;100374.00;;;;2069368;28;20306;-55
2021/09/19 02:29:25;;;;;;;2.33;2.10;;;;;21.30;100364.00;;;;2070375;28;20693;-54
2021/09/19 02:30:26;;;;;;;2.53;2.30;;;;;21.30;100371.00;;;;2070053;28;20316;-56
2021/09/19 02:31:26;;;;;;;2.17;1.97;;;;;21.30;100368.00;;;;2061699;28;20302;-56
2021/09/19 02:32:26;;;;;;;1.93;1.83;;;;;21.30;100371.00;;;;2066265;28;20279;-56
2021/09/19 02:33:27;;;;;;;1.87;1.77;;;;;21.30;100373.00;;;;2065967;28;20225;-56
2021/09/19 02:34:27;;;;;;;2.30;2.10;;;;;21.30;100365.00;;;;2066719;28;20210;-56
2021/09/19 02:35:28;;;;;;;2.43;1.97;;;;;21.30;100373.00;;;;2069226;28;20221;-55
2021/09/19 02:36:28;;;;;;;1.83;1.73;;;;;21.30;100369.00;;;;2066903;28;20249;-56
2021/09/19 02:37:28;;;;;;;2.33;1.83;;;;;21.30;100367.00;;;;2065053;28;20214;-59
2021/09/19 02:38:29;;;;;;;1.73;1.63;;;;;21.30;100376.00;;;;2067303;28;20215;-57
2021/09/19 02:39:30;;;;;;;2.13;1.92;;;;;21.30;100371.00;;;;2066387;28;20219;-56
2021/09/19 02:40:30;;;;;;;2.40;2.20;;;;;21.30;100366.00;;;;2067054;28;20248;-56
2021/09/19 02:41:31;;;;;;;2.00;1.80;;;;;21.30;100369.00;;;;2065063;28;20737;-56
2021/09/19 02:42:31;;;;;;;2.33;2.00;;;;;21.30;100373.00;;;;2063907;28;20225;-56
2021/09/19 02:43:31;;;;;;;2.17;1.93;;;;;21.30;100367.00;;;;2067219;28;20250;-57
2021/09/19 02:44:32;;;;;;;2.20;2.07;;;;;21.30;100371.00;;;;2065444;28;20345;-55
2021/09/19 02:45:32;;;;;;;2.43;2.23;;;;;21.30;100374.00;;;;2063039;28;20257;-56
2021/09/19 02:46:33;;;;;;;2.07;1.87;;;;;21.30;100371.00;;;;2066952;28;20458;-56
2021/09/19 02:47:34;;;;;;;2.10;2.00;;;;;21.30;100368.00;;;;2070531;28;20210;-57
2021/09/19 02:48:35;;;;;;;2.13;1.90;;;;;21.30;100376.00;;;;2066538;28;20261;-56
2021/09/19 02:49:35;;;;;;;2.45;2.05;;;;;21.30;100367.00;;;;2063664;28;20454;-56
2021/09/19 02:50:36;;;;;;;2.00;1.90;;;;;21.30;100366.00;;;;2065320;28;20217;-56
2021/09/19 02:51:36;;;;;;;2.20;2.00;;;;;21.30;100372.00;;;;2064833;28;20583;-55
2021/09/19 02:52:37;;;;;;;2.30;2.10;;;;;21.30;100363.00;;;;2064945;28;20294;-56
2021/09/19 02:53:37;;;;;;;2.60;2.03;;;;;21.30;100366.00;;;;2065063;28;20218;-56
2021/09/19 02:54:37;;;;;;;2.30;2.10;;;;;21.30;100367.00;;;;2066714;28;20221;-56
2021/09/19 02:55:38;;;;;;;2.20;2.00;;;;;21.30;100369.00;;;;2066754;28;20301;-56
2021/09/19 02:56:38;;;;;;;2.30;2.10;;;;;21.30;100374.00;;;;2070639;28;20214;-56
2021/09/19 02:57:39;;;;;;;2.77;2.07;;;;;21.30;100363.00;;;;2066997;28;20677;-57
2021/09/19 02:58:39;;;;;;;2.40;2.20;;;;;21.30;100364.00;;;;2067081;28;20195;-56
2021/09/19 02:59:40;;;;;;;2.10;2.00;;;;;21.30;100369.00;;;;2065264;28;20251;-57
2021/09/19 03:00:40;;;;;;;1.80;1.70;;;;;21.30;100367.00;;;;2068969;28;20804;-55
2021/09/19 03:01:41;;;;;;;2.03;1.83;;;;;21.30;100366.00;;;;2068638;28;20241;-56
2021/09/19 03:02:41;;;;;;;1.93;1.83;;;;;21.30;100363.00;;;;2069683;28;20206;-56
2021/09/19 03:03:42;;;;;;;2.13;1.93;;;;;21.30;100359.00;;;;2071032;28;20210;-56
2021/09/19 03:04:43;;;;;;;1.93;1.83;;;;;21.30;100365.00;;;;2067162;28;20242;-54
2021/09/19 03:05:43;;;;;;;2.40;2.20;;;;;21.30;100358.00;;;;2063039;28;20202;-57
2021/09/19 03:06:44;;;;;;;1.90;1.80;;;;;21.30;100372.00;;;;2067593;28;20457;-57
2021/09/19 03:07:44;;;;;;;1.90;1.73;;;;;21.30;100368.00;;;;2068508;28;20202;-56
2021/09/19 03:08:44;;;;;;;1.90;1.80;;;;;21.30;100370.00;;;;2064423;28;20297;-55
2021/09/19 03:09:45;;;;;;;2.40;2.20;;;;;21.30;100367.00;;;;2065318;28;20805;-55
2021/09/19 03:10:45;;;;;;;2.23;2.03;;;;;21.30;100367.00;;;;2063265;28;20302;-53
2021/09/19 03:11:45;;;;;;;2.47;2.27;;;;;21.30;100359.00;;;;2070126;28;20229;-55
2021/09/19 03:12:46;;;;;;;1.93;1.83;;;;;21.30;100365.00;;;;2064004;28;20222;-54
2021/09/19 03:13:46;;;;;;;1.90;1.80;;;;;21.30;100363.00;;;;2067180;28;20269;-54
2021/09/19 03:14:47;;;;;;;2.03;1.93;;;;;21.30;100357.00;;;;2066903;28;20225;-55
2021/09/19 03:15:47;;;;;;;2.37;2.17;;;;;21.20;100356.00;;;;2065721;28;20207;-53
2021/09/19 03:16:47;;;;;;;2.20;2.10;;;;;21.30;100361.00;;;;2063313;28;20211;-53
2021/09/19 03:17:48;;;;;;;1.90;1.80;;;;;21.30;100359.00;;;;2066836;28;20218;-54
2021/09/19 03:18:48;;;;;;;2.47;2.27;;;;;21.30;100363.00;;;;2064353;28;20695;-55
2021/09/19 03:19:49;;;;;;;2.47;2.27;;;;;21.30;100365.00;;;;2068052;28;20541;-55
2021/09/19 03:20:49;;;;;;;3.00;1.87;;;;;21.30;100365.00;;;;2070235;28;20228;-55
2021/09/19 03:21:50;;;;;;;1.90;1.80;;;;;21.30;100361.00;;;;2066597;28;20263;-54
2021/09/19 03:22:50;;;;;;;1.80;1.70;;;;;21.20;100355.00;;;;2066423;28;20442;-53
2021/09/19 03:23:51;;;;;;;2.97;1.87;;;;;21.30;100317.00;;;;2071058;28;20217;-55
2021/09/19 03:24:51;;;;;;;1.83;1.73;;;;;21.30;100362.00;;;;2069945;28;20757;-55
2021/09/19 03:25:51;;;;;;;1.97;1.87;;;;;21.30;100357.00;;;;2068108;28;20295;-53
2021/09/19 03:26:52;;;;;;;1.90;1.80;;;;;21.30;100358.00;;;;2067396;28;20646;-54
2021/09/19 03:27:52;;;;;;;2.47;2.27;;;;;21.30;100353.00;;;;2071239;28;20210;-55
2021/09/19 03:28:53;;;;;;;2.10;1.90;;;;;21.30;100361.00;;;;2069783;28;20265;-55
2021/09/19 03:29:53;;;;;;;1.83;1.73;;;;;21.20;100353.00;;;;2064054;28;20215;-54
2021/09/19 03:30:53;;;;;;;2.00;1.90;;;;;21.30;100359.00;;;;2066938;28;20288;-55
2021/09/19 03:31:54;;;;;;;2.23;1.70;;;;;21.20;100355.00;;;;2070581;28;20229;-55
2021/09/19 03:32:54;;;;;;;2.27;2.03;;;;;21.30;100360.00;;;;2066953;28;20686;-55
2021/09/19 03:33:54;;;;;;;2.00;1.90;;;;;21.30;100362.00;;;;2063144;28;20848;-54
2021/09/19 03:34:55;;;;;;;2.13;2.03;;;;;21.20;100353.00;;;;2066810;28;20241;-55
2021/09/19 03:35:55;;;;;;;1.80;1.70;;;;;21.20;100359.00;;;;2066854;28;20268;-55
2021/09/19 03:36:55;;;;;;;1.93;1.83;;;;;21.20;100359.00;;;;2066995;28;20223;-55
2021/09/19 03:37:56;;;;;;;2.60;2.00;;;;;21.20;100368.00;;;;2062962;28;20219;-55
2021/09/19 03:38:56;;;;;;;4.40;2.23;;;;;21.20;100369.00;;;;2068532;28;20301;-54
2021/09/19 03:39:56;;;;;;;1.77;1.67;;;;;21.20;100366.00;;;;2067173;28;20586;-55
2021/09/19 03:40:57;;;;;;;2.00;1.90;;;;;21.20;100360.00;;;;2063419;28;20219;-54
2021/09/19 03:41:57;;;;;;;2.17;1.97;;;;;21.20;100363.00;;;;2067355;28;20217;-55
2021/09/19 03:42:57;;;;;;;2.17;2.07;;;;;21.20;100365.00;;;;2067188;28;20562;-55
2021/09/19 03:43:59;;;;;;;1.90;1.80;;;;;21.20;100366.00;;;;2066128;28;20215;-55
2021/09/19 03:44:59;;;;;;;2.85;2.08;;;;;21.20;100367.00;;;;2064592;28;20219;-55
2021/09/19 03:45:59;;;;;;;2.17;2.00;;;;;21.20;100361.00;;;;2068064;28;20217;-54
2021/09/19 03:47:00;;;;;;;2.10;1.90;;;;;21.20;100369.00;;;;2066037;28;20221;-55
2021/09/19 03:48:07;;;;;;;1.60;1.50;;;;;21.30;100367.00;;;;2067516;28;20590;-55
2021/09/19 03:49:07;;;;;;;2.25;2.08;;;;;21.20;100355.00;;;;2062904;28;20299;-55
2021/09/19 03:50:08;;;;;;;1.93;1.83;;;;;21.20;100366.00;;;;2066649;28;20218;-55
2021/09/19 03:51:08;;;;;;;2.00;1.90;;;;;21.20;100364.00;;;;2065018;28;20211;-54
2021/09/19 03:52:08;;;;;;;1.83;1.70;;;;;21.30;100360.00;;;;2067090;28;20222;-55
2021/09/19 03:53:09;;;;;;;3.90;1.80;;;;;21.20;100368.00;;;;2069731;28;20724;-54
2021/09/19 03:54:09;;;;;;;2.17;1.97;;;;;21.20;100365.00;;;;2067216;28;20297;-55
2021/09/19 03:55:10;;;;;;;2.00;1.90;;;;;21.20;100362.00;;;;2070939;28;20698;-55
2021/09/19 03:56:10;;;;;;;1.83;1.73;;;;;21.20;100361.00;;;;2067144;28;20211;-55
2021/09/19 03:57:10;;;;;;;2.20;2.00;;;;;21.20;100361.00;;;;2067147;28;20216;-55
2021/09/19 03:58:11;;;;;;;2.03;1.57;;;;;21.20;100359.00;;;;2070993;28;20210;-56
2021/09/19 03:59:11;;;;;;;2.10;1.87;;;;;21.20;100358.00;;;;2068516;28;20210;-56
2021/09/19 04:00:11;;;;;;;1.90;1.80;;;;;21.20;100366.00;;;;2065159;28;20231;-55
2021/09/19 04:01:12;;;;;;;2.23;1.60;;;;;21.20;100360.00;;;;2064447;28;20777;-55
2021/09/19 04:02:12;;;;;;;1.83;1.73;;;;;21.20;100359.00;;;;2066800;28;20207;-55
2021/09/19 04:03:12;;;;;;;2.10;1.90;;;;;21.20;100365.00;;;;2066579;28;20257;-54
2021/09/19 04:04:13;;;;;;;2.03;1.90;;;;;21.20;100366.00;;;;2066972;28;20214;-55
2021/09/19 04:05:13;;;;;;;1.90;1.80;;;;;21.20;100367.00;;;;2066834;28;20698;-55
2021/09/19 04:06:14;;;;;;;2.27;2.07;;;;;21.20;100369.00;;;;2067749;28;20666;-55
2021/09/19 04:07:14;;;;;;;2.63;2.20;;;;;21.20;100362.00;;;;2065854;28;20222;-54
2021/09/19 04:08:14;;;;;;;2.00;1.80;;;;;21.20;100322.00;;;;2069191;28;20217;-55
2021/09/19 04:09:15;;;;;;;2.43;1.80;;;;;21.20;100360.00;;;;2070063;28;20686;-55
2021/09/19 04:10:15;;;;;;;2.53;1.87;;;;;21.20;100361.00;;;;2068646;28;20206;-55
2021/09/19 04:11:15;;;;;;;1.60;1.50;;;;;21.20;100357.00;;;;2072540;28;20214;-55
2021/09/19 04:12:16;;;;;;;1.97;1.80;;;;;21.20;100362.00;;;;2072630;28;20355;-55
2021/09/19 04:13:16;;;;;;;1.83;1.50;;;;;21.20;100358.00;;;;2064756;28;20210;-55
2021/09/19 04:14:18;;;;;;;1.87;1.77;;;;;21.20;100355.00;;;;2064353;28;20718;-55
2021/09/19 04:15:19;;;;;;;2.47;2.28;;;;;21.20;100349.00;;;;2064060;28;20215;-55
2021/09/19 04:16:19;;;;;;;1.50;1.40;;;;;21.20;100360.00;;;;2064336;28;20265;-55
2021/09/19 04:17:20;;;;;;;2.10;2.00;;;;;21.20;100349.00;;;;2064487;28;20231;-55
2021/09/19 04:18:20;;;;;;;2.23;1.70;;;;;21.20;100356.00;;;;2064373;28;20211;-54
2021/09/19 04:19:20;;;;;;;2.13;1.80;;;;;21.20;100356.00;;;;2064109;28;20215;-55
2021/09/19 04:20:21;;;;;;;1.67;1.57;;;;;21.20;100360.00;;;;2067964;28;20610;-54
2021/09/19 04:21:21;;;;;;;2.00;1.77;;;;;21.20;100357.00;;;;2068673;28;20210;-55
2021/09/19 04:22:23;;;;;;;3.20;2.00;;;;;21.20;100357.00;;;;2063644;28;20234;-54
2021/09/19 04:23:24;;;;;;;1.80;1.70;;;;;21.20;100360.00;;;;2064028;28;20256;-54
2021/09/19 04:24:24;;;;;;;2.30;2.07;;;;;21.20;100356.00;;;;2069399;28;20868;-55
2021/09/19 04:25:25;;;;;;;1.90;1.80;;;;;21.20;100363.00;;;;2069491;28;20199;-55
2021/09/19 04:26:25;;;;;;;2.10;2.00;;;;;21.20;100351.00;;;;2070330;28;20221;-55
2021/09/19 04:27:26;;;;;;;2.13;2.00;;;;;21.20;100357.00;;;;2068612;28;20264;-54
2021/09/19 04:28:26;;;;;;;2.30;2.10;;;;;21.20;100361.00;;;;2072343;28;20206;-55
2021/09/19 04:29:26;;;;;;;2.20;2.00;;;;;21.20;100359.00;;;;2064460;28;20203;-55
2021/09/19 04:30:27;;;;;;;1.60;1.50;;;;;21.20;100354.00;;;;2064340;28;20208;-55
2021/09/19 04:31:27;;;;;;;2.17;2.00;;;;;21.20;100361.00;;;;2063193;28;20556;-54
2021/09/19 04:32:27;;;;;;;2.00;1.90;;;;;21.20;100362.00;;;;2064318;28;20206;-55
2021/09/19 04:33:28;;;;;;;2.10;1.90;;;;;21.20;100362.00;;;;2069892;28;20293;-54
2021/09/19 04:34:28;;;;;;;2.27;1.80;;;;;21.20;100362.00;;;;2070060;28;20233;-55
2021/09/19 04:35:28;;;;;;;2.20;2.00;;;;;21.20;100360.00;;;;2070866;28;20572;-55
2021/09/19 04:36:29;;;;;;;1.80;1.70;;;;;21.20;100369.00;;;;2065462;28;20346;-55
2021/09/19 04:37:29;;;;;;;3.93;1.80;;;;;21.20;100359.00;;;;2067428;28;20535;-55
2021/09/19 04:38:30;;;;;;;2.23;2.00;;;;;21.20;100374.00;;;;2063546;28;20461;-55
2021/09/19 04:39:30;;;;;;;1.57;1.47;;;;;21.20;100369.00;;;;2063682;28;20234;-54
2021/09/19 04:40:30;;;;;;;2.30;1.47;;;;;21.20;100370.00;;;;2067931;28;20282;-55
2021/09/19 04:41:31;;;;;;;2.03;1.93;;;;;21.20;100362.00;;;;2065646;28;20699;-55
2021/09/19 04:42:31;;;;;;;1.83;1.73;;;;;21.20;100377.00;;;;2067589;28;20246;-55
2021/09/19 04:43:32;;;;;;;1.80;1.63;;;;;21.20;100369.00;;;;2065273;28;20211;-56
2021/09/19 04:44:32;;;;;;;2.30;2.10;;;;;21.20;100370.00;;;;2063515;28;20223;-54
2021/09/19 04:45:32;;;;;;;3.60;1.73;;;;;21.20;100362.00;;;;2064286;28;20221;-55
2021/09/19 04:46:33;;;;;;;1.70;1.60;;;;;21.20;100372.00;;;;2071435;28;20328;-55
2021/09/19 04:47:33;;;;;;;1.80;1.70;;;;;21.20;100374.00;;;;2064377;28;20218;-55
2021/09/19 04:48:33;;;;;;;2.70;1.60;;;;;21.20;100365.00;;;;2070721;28;20214;-55
2021/09/19 04:49:34;;;;;;;2.00;1.90;;;;;21.20;100377.00;;;;2063233;28;20222;-55
2021/09/19 04:50:34;;;;;;;2.13;1.93;;;;;21.20;100367.00;;;;2064234;28;21037;-55
2021/09/19 04:51:34;;;;;;;2.20;2.00;;;;;21.20;100369.00;;;;2068792;28;20241;-55
2021/09/19 04:52:35;;;;;;;2.43;2.23;;;;;21.20;100372.00;;;;2069776;28;20222;-55
2021/09/19 04:53:35;;;;;;;3.93;2.00;;;;;21.00;100373.00;;;;2067943;28;20753;-54
2021/09/19 04:54:36;;;;;;;1.70;1.60;;;;;21.20;100367.00;;;;2063977;28;20272;-55
2021/09/19 04:55:36;;;;;;;2.23;2.00;;;;;21.20;100364.00;;;;2067871;28;20214;-55
2021/09/19 04:56:36;;;;;;;2.17;1.90;;;;;21.20;100367.00;;;;2067822;28;20218;-55
2021/09/19 04:57:37;;;;;;;2.47;2.27;;;;;21.20;100378.00;;;;2067933;28;20214;-54
2021/09/19 04:58:38;;;;;;;2.30;2.10;;;;;21.20;100375.00;;;;2067810;28;20218;-55
2021/09/19 04:59:38;;;;;;;2.00;1.90;;;;;21.20;100369.00;;;;2067415;28;20552;-55